Air Navigation Services of Czech Republic
Airport: LKMT Updated:  07.02.2023 14:17:31  UTC
 SPECI LKMT 07.02. 14:17 ...
SPECI LKMT 071417Z 05007KT 7000 OVC019 M03/M06 Q1040=
 TAF LKMT 07.02. 11:00 ...
TAF LKMT 071100Z 0712/0812 03008KT 5000 BR BKN025      TEMPO 0712/0723 3500 BR      BECMG 0723/0801 BKN013      TEMPO 0801/0809 2000 BR BKN006      BECMG 0810/0812 SCT015=